sensor_id;sensor_type;location;lat;lon;timestamp;pressure;altitude;pressure_sealevel;temperature;humidity
68329;BME280;55182;56.864;60.554;2023-02-13T00:01:15;77801.00;;;-143.60;81.18
68329;BME280;55182;56.864;60.554;2023-02-13T00:03:40;77807.03;;;-143.60;81.22
68329;BME280;55182;56.864;60.554;2023-02-13T00:06:06;77813.06;;;-143.60;81.31
68329;BME280;55182;56.864;60.554;2023-02-13T00:08:31;77809.03;;;-143.60;80.97
68329;BME280;55182;56.864;60.554;2023-02-13T00:10:57;77803.00;;;-143.60;80.90
68329;BME280;55182;56.864;60.554;2023-02-13T00:13:22;77803.00;;;-143.60;80.98
68329;BME280;55182;56.864;60.554;2023-02-13T00:15:57;77809.03;;;-143.60;81.00
68329;BME280;55182;56.864;60.554;2023-02-13T00:18:23;77811.03;;;-143.60;81.03
68329;BME280;55182;56.864;60.554;2023-02-13T00:21:02;77811.03;;;-143.60;80.98
68329;BME280;55182;56.864;60.554;2023-02-13T00:23:28;77815.06;;;-143.60;81.13
68329;BME280;55182;56.864;60.554;2023-02-13T00:25:54;77811.03;;;-143.60;81.42
68329;BME280;55182;56.864;60.554;2023-02-13T00:28:20;77805.00;;;-143.60;81.36
68329;BME280;55182;56.864;60.554;2023-02-13T00:30:45;77811.03;;;-143.60;81.36
68329;BME280;55182;56.864;60.554;2023-02-13T00:33:12;77807.03;;;-143.60;81.60
68329;BME280;55182;56.864;60.554;2023-02-13T00:35:37;77801.00;;;-143.60;81.70
68329;BME280;55182;56.864;60.554;2023-02-13T00:38:03;77792.94;;;-143.60;81.63
68329;BME280;55182;56.864;60.554;2023-02-13T00:40:28;77790.94;;;-143.60;81.33
68329;BME280;55182;56.864;60.554;2023-02-13T00:42:53;77788.94;;;-143.60;81.05
68329;BME280;55182;56.864;60.554;2023-02-13T00:45:20;77796.97;;;-143.60;81.15
68329;BME280;55182;56.864;60.554;2023-02-13T00:47:45;77794.97;;;-143.60;81.09
68329;BME280;55182;56.864;60.554;2023-02-13T00:50:11;77792.94;;;-143.60;81.31
68329;BME280;55182;56.864;60.554;2023-02-13T00:52:36;77790.94;;;-143.60;81.27
68329;BME280;55182;56.864;60.554;2023-02-13T00:55:02;77790.94;;;-143.60;81.53
68329;BME280;55182;56.864;60.554;2023-02-13T00:57:27;77790.94;;;-143.60;81.42
68329;BME280;55182;56.864;60.554;2023-02-13T00:59:53;77796.97;;;-143.60;81.42
68329;BME280;55182;56.864;60.554;2023-02-13T01:02:18;77794.97;;;-143.60;81.23
68329;BME280;55182;56.864;60.554;2023-02-13T01:04:44;77790.94;;;-143.60;81.31
68329;BME280;55182;56.864;60.554;2023-02-13T01:07:09;77790.94;;;-143.60;81.27
68329;BME280;55182;56.864;60.554;2023-02-13T01:09:35;77798.97;;;-143.60;81.23
68329;BME280;55182;56.864;60.554;2023-02-13T01:12:00;77798.97;;;-143.60;81.38
68329;BME280;55182;56.864;60.554;2023-02-13T01:14:25;77807.03;;;-143.60;81.34
68329;BME280;55182;56.864;60.554;2023-02-13T01:16:51;77803.00;;;-143.60;81.29
68329;BME280;55182;56.864;60.554;2023-02-13T01:19:17;77809.03;;;-143.60;81.30
68329;BME280;55182;56.864;60.554;2023-02-13T01:21:42;77807.03;;;-143.60;81.52
68329;BME280;55182;56.864;60.554;2023-02-13T01:24:08;77807.03;;;-143.60;81.49
68329;BME280;55182;56.864;60.554;2023-02-13T01:26:34;77811.03;;;-143.60;81.42
68329;BME280;55182;56.864;60.554;2023-02-13T01:28:59;77813.06;;;-143.60;81.40
68329;BME280;55182;56.864;60.554;2023-02-13T01:31:25;77811.03;;;-143.60;81.50
68329;BME280;55182;56.864;60.554;2023-02-13T01:33:51;77815.06;;;-143.60;81.49
68329;BME280;55182;56.864;60.554;2023-02-13T01:36:20;77807.03;;;-143.60;81.39
68329;BME280;55182;56.864;60.554;2023-02-13T01:38:45;77807.03;;;-143.60;81.23
68329;BME280;55182;56.864;60.554;2023-02-13T01:41:11;77801.00;;;-143.60;81.43
68329;BME280;55182;56.864;60.554;2023-02-13T01:46:11;77807.03;;;-143.60;81.43
68329;BME280;55182;56.864;60.554;2023-02-13T01:48:37;77811.03;;;-143.60;81.33
68329;BME280;55182;56.864;60.554;2023-02-13T01:51:03;77813.06;;;-143.60;81.58
68329;BME280;55182;56.864;60.554;2023-02-13T01:53:35;77811.03;;;-143.60;81.68
68329;BME280;55182;56.864;60.554;2023-02-13T01:58:31;77807.03;;;-143.60;81.88
68329;BME280;55182;56.864;60.554;2023-02-13T02:00:58;77811.03;;;-143.60;81.61
68329;BME280;55182;56.864;60.554;2023-02-13T02:03:26;77807.03;;;-143.60;81.62
68329;BME280;55182;56.864;60.554;2023-02-13T02:05:59;77819.09;;;-143.60;81.81
68329;BME280;55182;56.864;60.554;2023-02-13T02:08:26;77819.09;;;-143.60;81.89
68329;BME280;55182;56.864;60.554;2023-02-13T02:10:53;77819.09;;;-143.60;82.04
68329;BME280;55182;56.864;60.554;2023-02-13T02:13:21;77811.03;;;-143.60;82.16
68329;BME280;55182;56.864;60.554;2023-02-13T02:15:47;77790.94;;;-143.60;82.27
68329;BME280;55182;56.864;60.554;2023-02-13T02:18:13;77766.81;;;-143.60;81.91
68329;BME280;55182;56.864;60.554;2023-02-13T02:25:57;77722.59;;;-143.60;80.04
68329;BME280;55182;56.864;60.554;2023-02-13T02:36:37;77740.69;;;-143.60;80.23
68329;BME280;55182;56.864;60.554;2023-02-13T02:41:49;77738.69;;;-143.60;80.16
68329;BME280;55182;56.864;60.554;2023-02-13T02:44:32;77746.72;;;-143.60;80.12
68329;BME280;55182;56.864;60.554;2023-02-13T02:47:06;77734.66;;;-143.60;80.13
68329;BME280;55182;56.864;60.554;2023-02-13T02:49:32;77736.66;;;-143.60;80.15
68329;BME280;55182;56.864;60.554;2023-02-13T02:52:10;77730.63;;;-143.60;80.15
68329;BME280;55182;56.864;60.554;2023-02-13T02:57:29;77718.56;;;-143.60;79.56
68329;BME280;55182;56.864;60.554;2023-02-13T02:59:57;77714.56;;;-143.60;79.32
68329;BME280;55182;56.864;60.554;2023-02-13T03:02:23;77710.53;;;-143.60;79.15
68329;BME280;55182;56.864;60.554;2023-02-13T03:04:50;77706.50;;;-143.60;79.06
68329;BME280;55182;56.864;60.554;2023-02-13T03:07:18;77702.50;;;-143.60;79.00
68329;BME280;55182;56.864;60.554;2023-02-13T03:09:56;77696.47;;;-143.60;78.68
68329;BME280;55182;56.864;60.554;2023-02-13T03:12:23;77690.44;;;-143.60;78.58
68329;BME280;55182;56.864;60.554;2023-02-13T03:14:51;77690.44;;;-143.60;78.33
68329;BME280;55182;56.864;60.554;2023-02-13T03:17:16;77686.41;;;-143.60;78.39
68329;BME280;55182;56.864;60.554;2023-02-13T03:24:59;77690.44;;;-143.60;78.13
68329;BME280;55182;56.864;60.554;2023-02-13T03:29:58;77702.50;;;-143.60;78.24
68329;BME280;55182;56.864;60.554;2023-02-13T03:35:00;77712.53;;;-143.60;78.36
68329;BME280;55182;56.864;60.554;2023-02-13T03:37:29;77710.53;;;-143.60;78.57
68329;BME280;55182;56.864;60.554;2023-02-13T03:40:01;77706.50;;;-143.60;78.46
68329;BME280;55182;56.864;60.554;2023-02-13T03:42:31;77716.56;;;-143.60;78.38
68329;BME280;55182;56.864;60.554;2023-02-13T03:45:05;77714.56;;;-143.60;78.49
68329;BME280;55182;56.864;60.554;2023-02-13T03:47:34;77718.56;;;-143.60;78.51
68329;BME280;55182;56.864;60.554;2023-02-13T03:50:00;77728.63;;;-143.60;78.85
68329;BME280;55182;56.864;60.554;2023-02-13T03:57:37;77730.63;;;-143.60;79.16
68329;BME280;55182;56.864;60.554;2023-02-13T04:00:05;77724.59;;;-143.60;79.11
68329;BME280;55182;56.864;60.554;2023-02-13T04:03:23;77724.59;;;-143.60;78.87
68329;BME280;55182;56.864;60.554;2023-02-13T04:05:24;77710.53;;;-143.60;78.80
68329;BME280;55182;56.864;60.554;2023-02-13T04:07:50;77706.50;;;-143.60;78.54
68329;BME280;55182;56.864;60.554;2023-02-13T04:10:16;77698.47;;;-143.60;78.25
68329;BME280;55182;56.864;60.554;2023-02-13T04:12:47;77682.38;;;-143.60;77.94
68329;BME280;55182;56.864;60.554;2023-02-13T04:17:41;77666.31;;;-143.60;77.53
68329;BME280;55182;56.864;60.554;2023-02-13T04:20:09;77658.25;;;-143.60;77.12
68329;BME280;55182;56.864;60.554;2023-02-13T04:22:40;77646.19;;;-143.60;76.72
68329;BME280;55182;56.864;60.554;2023-02-13T04:25:06;77658.25;;;-143.60;76.71
68329;BME280;55182;56.864;60.554;2023-02-13T04:27:31;77646.19;;;-143.60;76.69
68329;BME280;55182;56.864;60.554;2023-02-13T04:29:57;77650.22;;;-143.60;76.64
68329;BME280;55182;56.864;60.554;2023-02-13T04:32:22;77650.22;;;-143.60;76.75
68329;BME280;55182;56.864;60.554;2023-02-13T04:34:48;77650.22;;;-143.60;76.31
68329;BME280;55182;56.864;60.554;2023-02-13T04:37:13;77648.22;;;-143.60;76.41
68329;BME280;55182;56.864;60.554;2023-02-13T04:39:39;77644.19;;;-143.60;76.42
68329;BME280;55182;56.864;60.554;2023-02-13T04:42:04;77646.19;;;-143.60;76.14
68329;BME280;55182;56.864;60.554;2023-02-13T04:44:29;77650.22;;;-143.60;76.15
68329;BME280;55182;56.864;60.554;2023-02-13T04:46:55;77642.19;;;-143.60;76.33
68329;BME280;55182;56.864;60.554;2023-02-13T04:49:20;77646.19;;;-143.60;76.24
68329;BME280;55182;56.864;60.554;2023-02-13T04:51:46;77640.16;;;-143.60;76.19
68329;BME280;55182;56.864;60.554;2023-02-13T04:54:11;77640.16;;;-143.60;75.99
68329;BME280;55182;56.864;60.554;2023-02-13T04:56:37;77636.16;;;-143.60;75.71
68329;BME280;55182;56.864;60.554;2023-02-13T04:59:02;77618.06;;;-143.60;75.56
68329;BME280;55182;56.864;60.554;2023-02-13T05:01:27;77616.06;;;-143.60;75.42
68329;BME280;55182;56.864;60.554;2023-02-13T05:03:53;77606.00;;;-143.60;75.26
68329;BME280;55182;56.864;60.554;2023-02-13T05:06:18;77599.97;;;-143.60;74.97
68329;BME280;55182;56.864;60.554;2023-02-13T05:08:44;77589.91;;;-143.60;74.76
68329;BME280;55182;56.864;60.554;2023-02-13T05:11:09;77577.84;;;-143.60;74.45
68329;BME280;55182;56.864;60.554;2023-02-13T05:13:35;77569.81;;;-143.60;74.02
68329;BME280;55182;56.864;60.554;2023-02-13T05:16:00;77557.75;;;-143.60;73.78
68329;BME280;55182;56.864;60.554;2023-02-13T05:18:26;77559.75;;;-143.60;73.62
68329;BME280;55182;56.864;60.554;2023-02-13T05:20:52;77547.69;;;-143.60;73.23
68329;BME280;55182;56.864;60.554;2023-02-13T05:23:17;77537.66;;;-143.60;73.12
68329;BME280;55182;56.864;60.554;2023-02-13T05:25:43;77537.66;;;-143.60;72.60
68329;BME280;55182;56.864;60.554;2023-02-13T05:28:08;77527.59;;;-143.60;72.48
68329;BME280;55182;56.864;60.554;2023-02-13T05:30:34;77521.56;;;-143.60;72.36
68329;BME280;55182;56.864;60.554;2023-02-13T05:32:59;77509.50;;;-143.60;72.23
68329;BME280;55182;56.864;60.554;2023-02-13T05:35:25;77497.44;;;-143.60;71.84
68329;BME280;55182;56.864;60.554;2023-02-13T05:37:50;77493.44;;;-143.60;71.63
68329;BME280;55182;56.864;60.554;2023-02-13T05:40:15;77485.38;;;-143.60;71.69
68329;BME280;55182;56.864;60.554;2023-02-13T05:42:41;77487.41;;;-143.60;71.33
68329;BME280;55182;56.864;60.554;2023-02-13T05:45:07;77479.34;;;-143.60;71.29
68329;BME280;55182;56.864;60.554;2023-02-13T05:47:33;77471.31;;;-143.60;71.10
68329;BME280;55182;56.864;60.554;2023-02-13T05:49:58;77453.22;;;-143.60;70.85
68329;BME280;55182;56.864;60.554;2023-02-13T05:52:23;77451.22;;;-143.60;70.72
68329;BME280;55182;56.864;60.554;2023-02-13T05:54:49;77449.19;;;-143.60;70.30
68329;BME280;55182;56.864;60.554;2023-02-13T05:57:15;77449.19;;;-143.60;70.33
68329;BME280;55182;56.864;60.554;2023-02-13T05:59:40;77447.19;;;-143.60;70.28
68329;BME280;55182;56.864;60.554;2023-02-13T06:02:06;77437.13;;;-143.60;70.19
68329;BME280;55182;56.864;60.554;2023-02-13T06:04:31;77433.13;;;-143.60;70.36
68329;BME280;55182;56.864;60.554;2023-02-13T06:06:56;77425.09;;;-143.60;70.03
68329;BME280;55182;56.864;60.554;2023-02-13T06:09:22;77413.03;;;-143.60;69.47
68329;BME280;55182;56.864;60.554;2023-02-13T06:11:48;77404.97;;;-143.60;69.35
68329;BME280;55182;56.864;60.554;2023-02-13T06:14:13;77400.97;;;-143.60;69.26
68329;BME280;55182;56.864;60.554;2023-02-13T06:16:39;77388.91;;;-143.60;69.20
68329;BME280;55182;56.864;60.554;2023-02-13T06:19:04;77380.84;;;-143.60;68.68
68329;BME280;55182;56.864;60.554;2023-02-13T06:21:30;77370.81;;;-143.60;68.48
68329;BME280;55182;56.864;60.554;2023-02-13T06:23:55;77356.75;;;-143.60;68.31
68329;BME280;55182;56.864;60.554;2023-02-13T06:26:21;77344.69;;;-143.60;68.17
68329;BME280;55182;56.864;60.554;2023-02-13T06:28:46;77332.63;;;-143.60;67.67
68329;BME280;55182;56.864;60.554;2023-02-13T06:31:12;77324.56;;;-143.60;67.92
68329;BME280;55182;56.864;60.554;2023-02-13T06:33:38;77320.56;;;-143.60;67.74
68329;BME280;55182;56.864;60.554;2023-02-13T06:36:03;77322.56;;;-143.60;67.68
68329;BME280;55182;56.864;60.554;2023-02-13T06:38:29;77314.53;;;-143.60;67.38
68329;BME280;55182;56.864;60.554;2023-02-13T06:40:57;77312.50;;;-143.60;67.14
68329;BME280;55182;56.864;60.554;2023-02-13T06:43:23;77312.50;;;-143.60;67.50
68329;BME280;55182;56.864;60.554;2023-02-13T06:45:49;77312.50;;;-143.60;67.33
68329;BME280;55182;56.864;60.554;2023-02-13T06:48:14;77300.44;;;-143.60;67.19
68329;BME280;55182;56.864;60.554;2023-02-13T06:50:40;77288.41;;;-143.60;66.97
68329;BME280;55182;56.864;60.554;2023-02-13T06:53:05;77280.34;;;-143.60;66.88
68329;BME280;55182;56.864;60.554;2023-02-13T06:55:31;77264.28;;;-143.60;66.80
68329;BME280;55182;56.864;60.554;2023-02-13T06:57:56;77254.22;;;-143.60;66.26
68329;BME280;55182;56.864;60.554;2023-02-13T07:00:22;77244.19;;;-143.60;65.86
68329;BME280;55182;56.864;60.554;2023-02-13T07:02:48;77236.13;;;-143.60;65.70
68329;BME280;55182;56.864;60.554;2023-02-13T07:05:13;77230.09;;;-143.60;66.00
68329;BME280;55182;56.864;60.554;2023-02-13T07:07:40;77226.09;;;-143.60;65.70
68329;BME280;55182;56.864;60.554;2023-02-13T07:10:07;77224.06;;;-143.60;65.65
68329;BME280;55182;56.864;60.554;2023-02-13T07:12:33;77222.06;;;-143.60;65.67
68329;BME280;55182;56.864;60.554;2023-02-13T07:14:59;77208.00;;;-143.60;65.81
68329;BME280;55182;56.864;60.554;2023-02-13T07:17:25;77203.97;;;-143.60;65.61
68329;BME280;55182;56.864;60.554;2023-02-13T07:19:50;77191.91;;;-143.60;65.36
68329;BME280;55182;56.864;60.554;2023-02-13T07:22:16;77179.84;;;-143.60;65.45
68329;BME280;55182;56.864;60.554;2023-02-13T07:24:41;77171.81;;;-143.60;65.02
68329;BME280;55182;56.864;60.554;2023-02-13T07:27:07;77151.72;;;-143.60;64.92
68329;BME280;55182;56.864;60.554;2023-02-13T07:29:33;77139.66;;;-143.60;64.85
68329;BME280;55182;56.864;60.554;2023-02-13T07:31:59;77123.56;;;-143.60;64.47
68329;BME280;55182;56.864;60.554;2023-02-13T07:34:24;77103.47;;;-143.60;63.74
68329;BME280;55182;56.864;60.554;2023-02-13T07:36:50;77075.34;;;-143.60;63.49
68329;BME280;55182;56.864;60.554;2023-02-13T07:39:15;77063.28;;;-143.60;63.10
68329;BME280;55182;56.864;60.554;2023-02-13T07:41:40;77041.16;;;-143.60;62.71
68329;BME280;55182;56.864;60.554;2023-02-13T07:44:06;77031.13;;;-143.60;62.20
68329;BME280;55182;56.864;60.554;2023-02-13T07:46:31;77019.06;;;-143.60;61.79
68329;BME280;55182;56.864;60.554;2023-02-13T07:48:57;76996.94;;;-143.60;61.81
68329;BME280;55182;56.864;60.554;2023-02-13T07:51:22;76986.91;;;-143.60;61.43
68329;BME280;55182;56.864;60.554;2023-02-13T07:53:48;76976.84;;;-143.60;61.11
68329;BME280;55182;56.864;60.554;2023-02-13T07:56:13;76966.81;;;-143.60;61.14
68329;BME280;55182;56.864;60.554;2023-02-13T07:58:39;76954.75;;;-143.60;61.27
68329;BME280;55182;56.864;60.554;2023-02-13T08:01:05;76934.63;;;-143.60;60.86
68329;BME280;55182;56.864;60.554;2023-02-13T08:03:30;76914.53;;;-143.60;60.96
68329;BME280;55182;56.864;60.554;2023-02-13T08:05:56;76888.41;;;-143.60;60.40
68329;BME280;55182;56.864;60.554;2023-02-13T08:08:21;76870.31;;;-143.60;60.32
68329;BME280;55182;56.864;60.554;2023-02-13T08:10:47;76854.25;;;-143.60;60.14
68329;BME280;55182;56.864;60.554;2023-02-13T08:13:12;76840.19;;;-143.60;59.94
68329;BME280;55182;56.864;60.554;2023-02-13T08:15:39;76818.06;;;-143.60;59.35
68329;BME280;55182;56.864;60.554;2023-02-13T08:18:05;76806.00;;;-143.60;58.80
68329;BME280;55182;56.864;60.554;2023-02-13T08:20:30;76793.94;;;-143.60;59.07
68329;BME280;55182;56.864;60.554;2023-02-13T08:23:04;76781.91;;;-143.60;59.13
68329;BME280;55182;56.864;60.554;2023-02-13T08:25:30;76767.81;;;-143.60;58.68
68329;BME280;55182;56.864;60.554;2023-02-13T08:27:57;76753.75;;;-143.60;58.81
68329;BME280;55182;56.864;60.554;2023-02-13T08:30:23;76741.69;;;-143.60;58.64
68329;BME280;55182;56.864;60.554;2023-02-13T08:32:48;76717.56;;;-143.60;58.52
68329;BME280;55182;56.864;60.554;2023-02-13T08:35:14;76701.50;;;-143.60;58.02
68329;BME280;55182;56.864;60.554;2023-02-13T08:37:40;76691.44;;;-143.60;57.19
68329;BME280;55182;56.864;60.554;2023-02-13T08:40:06;76685.44;;;-143.60;57.16
68329;BME280;55182;56.864;60.554;2023-02-13T08:42:32;76679.41;;;-143.60;57.68
68329;BME280;55182;56.864;60.554;2023-02-13T08:44:57;76679.41;;;-143.60;57.58
68329;BME280;55182;56.864;60.554;2023-02-13T08:47:23;76673.38;;;-143.60;56.95
68329;BME280;55182;56.864;60.554;2023-02-13T08:49:48;76657.28;;;-143.60;57.80
68329;BME280;55182;56.864;60.554;2023-02-13T08:52:14;76647.25;;;-143.60;56.95
68329;BME280;55182;56.864;60.554;2023-02-13T08:54:39;76637.19;;;-143.60;57.55
68329;BME280;55182;56.864;60.554;2023-02-13T08:57:05;76623.13;;;-143.60;56.92
68329;BME280;55182;56.864;60.554;2023-02-13T08:59:30;76621.13;;;-143.60;56.47
68329;BME280;55182;56.864;60.554;2023-02-13T09:01:56;76613.06;;;-143.60;56.02
68329;BME280;55182;56.864;60.554;2023-02-13T09:04:22;76615.09;;;-143.60;56.71
68329;BME280;55182;56.864;60.554;2023-02-13T09:06:47;76611.06;;;-143.60;56.66
68329;BME280;55182;56.864;60.554;2023-02-13T09:09:13;76609.06;;;-143.60;56.81
68329;BME280;55182;56.864;60.554;2023-02-13T09:11:38;76605.03;;;-143.60;56.37
68329;BME280;55182;56.864;60.554;2023-02-13T09:14:04;76599.00;;;-143.60;56.15
68329;BME280;55182;56.864;60.554;2023-02-13T09:16:29;76588.97;;;-143.60;56.49
68329;BME280;55182;56.864;60.554;2023-02-13T09:18:55;76584.94;;;-143.60;55.81
68329;BME280;55182;56.864;60.554;2023-02-13T09:21:20;76568.84;;;-143.60;55.89
68329;BME280;55182;56.864;60.554;2023-02-13T09:23:46;76564.84;;;-143.60;55.89
68329;BME280;55182;56.864;60.554;2023-02-13T09:26:12;76556.81;;;-143.60;55.22
68329;BME280;55182;56.864;60.554;2023-02-13T09:28:38;76554.78;;;-143.60;55.46
68329;BME280;55182;56.864;60.554;2023-02-13T09:31:08;76556.81;;;-143.60;55.19
68329;BME280;55182;56.864;60.554;2023-02-13T09:33:34;76544.75;;;-143.60;55.57
68329;BME280;55182;56.864;60.554;2023-02-13T09:36:06;76538.72;;;-143.60;54.82
68329;BME280;55182;56.864;60.554;2023-02-13T09:38:33;76538.72;;;-143.60;55.60
68329;BME280;55182;56.864;60.554;2023-02-13T09:40:59;76532.69;;;-143.60;54.99
68329;BME280;55182;56.864;60.554;2023-02-13T09:43:30;76520.63;;;-143.60;55.25
68329;BME280;55182;56.864;60.554;2023-02-13T09:45:57;76516.59;;;-143.60;54.63
68329;BME280;55182;56.864;60.554;2023-02-13T09:48:27;76516.59;;;-143.60;54.75
68329;BME280;55182;56.864;60.554;2023-02-13T09:50:53;76508.56;;;-143.60;54.61
68329;BME280;55182;56.864;60.554;2023-02-13T09:53:20;76506.56;;;-143.60;54.62
68329;BME280;55182;56.864;60.554;2023-02-13T09:55:48;76512.59;;;-143.60;54.50
68329;BME280;55182;56.864;60.554;2023-02-13T10:00:52;76510.59;;;-143.60;54.64
68329;BME280;55182;56.864;60.554;2023-02-13T10:15:53;76542.72;;;-143.60;54.38
68329;BME280;55182;56.864;60.554;2023-02-13T10:18:26;76536.72;;;-143.60;54.13
68329;BME280;55182;56.864;60.554;2023-02-13T10:20:53;76536.72;;;-143.60;54.33
68329;BME280;55182;56.864;60.554;2023-02-13T10:23:23;76540.72;;;-143.60;54.77
68329;BME280;55182;56.864;60.554;2023-02-13T10:25:52;76536.72;;;-143.60;54.26
68329;BME280;55182;56.864;60.554;2023-02-13T10:31:06;76532.69;;;-143.60;54.34
68329;BME280;55182;56.864;60.554;2023-02-13T10:33:50;76532.69;;;-143.60;54.45
68329;BME280;55182;56.864;60.554;2023-02-13T10:36:26;76532.69;;;-143.60;54.55
68329;BME280;55182;56.864;60.554;2023-02-13T10:39:12;76528.66;;;-143.60;55.19
68329;BME280;55182;56.864;60.554;2023-02-13T10:57:25;76609.06;;;-143.60;55.65
68329;BME280;55182;56.864;60.554;2023-02-13T11:02:21;76623.13;;;-143.60;55.13
68329;BME280;55182;56.864;60.554;2023-02-13T11:04:49;76629.16;;;-143.60;54.52
68329;BME280;55182;56.864;60.554;2023-02-13T11:07:15;76627.13;;;-143.60;54.38
68329;BME280;55182;56.864;60.554;2023-02-13T11:09:42;76629.16;;;-143.60;54.71
68329;BME280;55182;56.864;60.554;2023-02-13T11:12:26;76637.19;;;-143.60;54.84
68329;BME280;55182;56.864;60.554;2023-02-13T11:14:52;76635.19;;;-143.60;54.71
68329;BME280;55182;56.864;60.554;2023-02-13T11:17:18;76633.16;;;-143.60;54.58
68329;BME280;55182;56.864;60.554;2023-02-13T11:19:50;76641.22;;;-143.60;54.55
68329;BME280;55182;56.864;60.554;2023-02-13T11:25:03;76647.25;;;-143.60;55.11
68329;BME280;55182;56.864;60.554;2023-02-13T11:27:33;76657.28;;;-143.60;55.26
68329;BME280;55182;56.864;60.554;2023-02-13T11:30:02;76657.28;;;-143.60;55.56
68329;BME280;55182;56.864;60.554;2023-02-13T11:32:29;76669.34;;;-143.60;55.82
68329;BME280;55182;56.864;60.554;2023-02-13T11:34:55;76681.41;;;-143.60;56.31
68329;BME280;55182;56.864;60.554;2023-02-13T11:37:22;76673.38;;;-143.60;56.39
68329;BME280;55182;56.864;60.554;2023-02-13T11:39:49;76683.41;;;-143.60;56.39
68329;BME280;55182;56.864;60.554;2023-02-13T11:42:15;76683.41;;;-143.60;56.95
68329;BME280;55182;56.864;60.554;2023-02-13T11:44:47;76695.47;;;-143.60;57.17
68329;BME280;55182;56.864;60.554;2023-02-13T11:47:13;76697.47;;;-143.60;57.00
68329;BME280;55182;56.864;60.554;2023-02-13T11:49:38;76707.53;;;-143.60;57.11
68329;BME280;55182;56.864;60.554;2023-02-13T11:52:25;76701.50;;;-143.60;57.61
68329;BME280;55182;56.864;60.554;2023-02-13T11:54:56;76709.53;;;-143.60;57.72
68329;BME280;55182;56.864;60.554;2023-02-13T11:57:23;76705.53;;;-143.60;57.72
68329;BME280;55182;56.864;60.554;2023-02-13T11:59:50;76709.53;;;-143.60;58.26
68329;BME280;55182;56.864;60.554;2023-02-13T12:02:23;76717.56;;;-143.60;58.54
68329;BME280;55182;56.864;60.554;2023-02-13T12:04:49;76713.56;;;-143.60;59.04
68329;BME280;55182;56.864;60.554;2023-02-13T12:07:25;76725.63;;;-143.60;59.17
68329;BME280;55182;56.864;60.554;2023-02-13T12:09:54;76733.66;;;-143.60;59.28
68329;BME280;55182;56.864;60.554;2023-02-13T12:12:25;76743.72;;;-143.60;59.63
68329;BME280;55182;56.864;60.554;2023-02-13T12:14:53;76755.75;;;-143.60;59.63
68329;BME280;55182;56.864;60.554;2023-02-13T12:17:21;76757.78;;;-143.60;59.75
68329;BME280;55182;56.864;60.554;2023-02-13T12:19:47;76763.81;;;-143.60;59.87
68329;BME280;55182;56.864;60.554;2023-02-13T12:27:27;76777.88;;;-143.60;60.03
68329;BME280;55182;56.864;60.554;2023-02-13T12:45:37;76808.03;;;-143.60;60.73
68329;BME280;55182;56.864;60.554;2023-02-13T12:53:26;76828.13;;;-143.60;61.40
68329;BME280;55182;56.864;60.554;2023-02-13T13:23:47;76840.19;;;-143.60;61.58
68329;BME280;55182;56.864;60.554;2023-02-13T13:28:51;76854.25;;;-143.60;61.46
68329;BME280;55182;56.864;60.554;2023-02-13T13:31:19;76846.22;;;-143.60;61.88
68329;BME280;55182;56.864;60.554;2023-02-13T13:33:45;76850.22;;;-143.60;61.89
68329;BME280;55182;56.864;60.554;2023-02-13T13:36:26;76858.25;;;-143.60;62.47
68329;BME280;55182;56.864;60.554;2023-02-13T13:46:19;76894.44;;;-143.60;63.45
68329;BME280;55182;56.864;60.554;2023-02-13T13:51:45;76922.59;;;-143.60;64.46
68329;BME280;55182;56.864;60.554;2023-02-13T13:59:17;76926.59;;;-143.60;65.18
68329;BME280;55182;56.864;60.554;2023-02-13T14:01:43;76930.63;;;-143.60;65.49
68329;BME280;55182;56.864;60.554;2023-02-13T14:07:13;76940.66;;;-143.60;65.82
68329;BME280;55182;56.864;60.554;2023-02-13T14:09:39;76948.72;;;-143.60;65.82
68329;BME280;55182;56.864;60.554;2023-02-13T14:14:50;76970.81;;;-143.60;66.40
68329;BME280;55182;56.864;60.554;2023-02-13T14:17:16;76968.81;;;-143.60;66.44
68329;BME280;55182;56.864;60.554;2023-02-13T14:20:01;76974.84;;;-143.60;66.70
68329;BME280;55182;56.864;60.554;2023-02-13T14:22:35;76974.84;;;-143.60;66.63
68329;BME280;55182;56.864;60.554;2023-02-13T14:25:04;76984.88;;;-143.60;66.91
68329;BME280;55182;56.864;60.554;2023-02-13T14:27:33;76980.88;;;-143.60;67.48
68329;BME280;55182;56.864;60.554;2023-02-13T14:29:59;76974.84;;;-143.60;67.89
68329;BME280;55182;56.864;60.554;2023-02-13T14:34:55;76974.84;;;-143.60;68.30
68329;BME280;55182;56.864;60.554;2023-02-13T14:38:04;76974.84;;;-143.60;68.38
68329;BME280;55182;56.864;60.554;2023-02-13T14:42:36;76976.84;;;-143.60;68.74
68329;BME280;55182;56.864;60.554;2023-02-13T14:45:03;76978.84;;;-143.60;68.83
68329;BME280;55182;56.864;60.554;2023-02-13T14:47:30;76972.81;;;-143.60;69.03
68329;BME280;55182;56.864;60.554;2023-02-13T14:49:58;76974.84;;;-143.60;69.07
68329;BME280;55182;56.864;60.554;2023-02-13T14:52:25;76974.84;;;-143.60;68.95
68329;BME280;55182;56.864;60.554;2023-02-13T14:57:26;76980.88;;;-143.60;69.14
68329;BME280;55182;56.864;60.554;2023-02-13T14:59:53;76982.88;;;-143.60;69.37
68329;BME280;55182;56.864;60.554;2023-02-13T15:02:24;76994.94;;;-143.60;69.78
68329;BME280;55182;56.864;60.554;2023-02-13T15:05:33;77007.00;;;-143.60;70.05
68329;BME280;55182;56.864;60.554;2023-02-13T15:13:01;77019.06;;;-143.60;71.48
68329;BME280;55182;56.864;60.554;2023-02-13T15:15:27;77013.03;;;-143.60;71.80
68329;BME280;55182;56.864;60.554;2023-02-13T15:17:56;77015.03;;;-143.60;71.92
68329;BME280;55182;56.864;60.554;2023-02-13T15:20:23;77015.03;;;-143.60;71.87
68329;BME280;55182;56.864;60.554;2023-02-13T15:22:50;77017.03;;;-143.60;72.01